createdAt,value
2022-12-03T00:01:18.567Z,-0.17
2022-12-03T00:03:46.670Z,-0.21
2022-12-03T00:06:14.950Z,-0.19
2022-12-03T00:08:42.923Z,-0.23
2022-12-03T00:11:14.021Z,-0.24
2022-12-03T00:13:45.387Z,-0.22
2022-12-03T00:16:13.901Z,-0.25
2022-12-03T00:18:45.661Z,-0.21
2022-12-03T00:21:16.327Z,-0.19
2022-12-03T00:23:44.657Z,-0.18
2022-12-03T00:26:15.020Z,-0.19
2022-12-03T00:28:43.297Z,-0.14
2022-12-03T00:31:11.322Z,-0.17
2022-12-03T00:33:39.549Z,-0.20
2022-12-03T00:36:10.320Z,-0.18
2022-12-03T00:38:39.015Z,-0.14
2022-12-03T00:41:07.034Z,-0.14
2022-12-03T00:43:37.145Z,-0.14
2022-12-03T00:46:05.161Z,-0.16
2022-12-03T00:48:33.162Z,-0.19
2022-12-03T00:51:01.157Z,-0.25
2022-12-03T00:53:30.756Z,-0.26
2022-12-03T00:55:58.755Z,-0.27
2022-12-03T00:58:29.421Z,-0.27
2022-12-03T01:00:57.490Z,-0.26
2022-12-03T01:03:25.556Z,-0.24
2022-12-03T01:05:53.715Z,-0.21
2022-12-03T01:08:21.879Z,-0.25
2022-12-03T01:10:53.640Z,-0.26
2022-12-03T01:13:21.905Z,-0.26
2022-12-03T01:15:49.981Z,-0.28
2022-12-03T01:18:18.292Z,-0.29
2022-12-03T01:23:14.495Z,-0.39
2022-12-03T01:25:42.504Z,-0.39
2022-12-03T01:28:12.715Z,-0.37
2022-12-03T01:30:56.913Z,-0.39
2022-12-03T01:33:25.127Z,-0.39
2022-12-03T01:35:53.225Z,-0.37
2022-12-03T01:38:22.942Z,-0.41
2022-12-03T01:40:54.976Z,-0.40
2022-12-03T01:43:23.306Z,-0.40
2022-12-03T01:45:51.293Z,-0.34
2022-12-03T01:48:19.640Z,-0.37
2022-12-03T01:50:47.968Z,-0.35
2022-12-03T01:53:21.463Z,-0.43
2022-12-03T01:55:53.174Z,-0.33
2022-12-03T01:58:26.450Z,-0.32
2022-12-03T02:00:55.043Z,-0.31
2022-12-03T02:03:25.235Z,-0.27
2022-12-03T02:05:56.816Z,-0.27
2022-12-03T02:08:30.028Z,-0.27
2022-12-03T02:11:03.520Z,-0.20
2022-12-03T02:13:47.726Z,-0.21
2022-12-03T02:16:15.877Z,-0.20
2022-12-03T02:18:44.643Z,-0.20
2022-12-03T02:21:20.143Z,-0.18
2022-12-03T02:24:01.895Z,-0.19
2022-12-03T02:26:33.550Z,-0.15
2022-12-03T02:29:02.512Z,-0.12
2022-12-03T02:31:30.883Z,-0.14
2022-12-03T02:33:59.032Z,-0.12
2022-12-03T02:36:29.883Z,-0.14
2022-12-03T02:38:58.003Z,-0.12
2022-12-03T02:41:46.669Z,-0.15
2022-12-03T02:44:16.616Z,-0.17
2022-12-03T02:46:47.374Z,-0.10
2022-12-03T02:49:15.733Z,-0.10
2022-12-03T02:51:43.700Z,-0.08
2022-12-03T02:54:12.252Z,-0.08
2022-12-03T02:56:43.161Z,-0.08
2022-12-03T02:59:17.400Z,-0.07
2022-12-03T03:01:45.715Z,-0.06
2022-12-03T03:04:14.029Z,-0.03
2022-12-03T03:06:42.017Z,-0.04
2022-12-03T03:09:10.185Z,-0.06
2022-12-03T03:11:38.344Z,-0.05
2022-12-03T03:14:08.694Z,-0.01
2022-12-03T03:16:40.693Z,-0.03
2022-12-03T03:19:08.846Z,-0.05
2022-12-03T03:21:40.100Z,-0.01
2022-12-03T03:24:08.996Z,-0.01
2022-12-03T03:26:37.241Z,-0.03
2022-12-03T03:29:08.225Z,-0.03
2022-12-03T03:31:36.510Z,-0.04
2022-12-03T03:34:06.461Z,-0.06
2022-12-03T03:36:37.179Z,-0.03
2022-12-03T03:39:06.543Z,-0.04
2022-12-03T03:41:37.537Z,-0.06
2022-12-03T03:44:08.845Z,-0.24
2022-12-03T03:46:38.451Z,-0.07
2022-12-03T03:49:11.678Z,-0.04
2022-12-03T03:51:40.591Z,-0.01
2022-12-03T03:54:11.294Z,0.01
2022-12-03T03:56:42.466Z,0.03
2022-12-03T03:59:10.741Z,0.08
2022-12-03T04:01:39.175Z,0.17
2022-12-03T04:04:12.853Z,0.11
2022-12-03T04:06:44.399Z,0.21
2022-12-03T04:09:12.637Z,0.09
2022-12-03T04:11:58.148Z,0.24
2022-12-03T04:14:28.404Z,0.21
2022-12-03T04:16:56.466Z,0.21
2022-12-03T04:19:24.843Z,0.23
2022-12-03T04:22:14.266Z,0.23
2022-12-03T04:24:46.979Z,0.20
2022-12-03T04:27:32.821Z,0.26
2022-12-03T04:30:00.851Z,0.22
2022-12-03T04:32:46.871Z,0.19
2022-12-03T04:35:38.526Z,0.21
2022-12-03T04:38:10.305Z,0.21
2022-12-03T04:40:55.699Z,0.22
2022-12-03T04:43:23.683Z,0.19
2022-12-03T04:45:52.044Z,0.19
2022-12-03T04:48:22.492Z,0.23
2022-12-03T04:50:50.731Z,0.19
2022-12-03T04:53:20.079Z,0.13
2022-12-03T04:55:48.385Z,0.19
2022-12-03T04:58:19.178Z,0.18
2022-12-03T05:00:47.179Z,0.20
2022-12-03T05:03:15.258Z,0.19
2022-12-03T05:05:44.248Z,0.20
2022-12-03T05:08:14.597Z,0.21
2022-12-03T05:10:44.009Z,0.23
2022-12-03T05:13:12.317Z,0.24
2022-12-03T05:15:42.405Z,0.25
2022-12-03T05:18:10.376Z,0.20
2022-12-03T05:20:51.334Z,0.23
2022-12-03T05:23:21.803Z,0.24
2022-12-03T05:25:51.324Z,0.20
2022-12-03T05:28:22.242Z,0.23
2022-12-03T05:30:52.684Z,0.26
2022-12-03T05:33:21.096Z,0.24
2022-12-03T05:35:51.079Z,0.23
2022-12-03T05:38:19.240Z,0.03
2022-12-03T05:40:47.337Z,0.23
2022-12-03T05:43:15.886Z,0.22
2022-12-03T05:45:45.398Z,0.10
2022-12-03T05:48:15.504Z,0.22
2022-12-03T05:50:45.789Z,0.16
2022-12-03T05:53:17.513Z,0.17
2022-12-03T05:55:45.653Z,0.18
2022-12-03T05:58:13.775Z,0.19
2022-12-03T06:00:45.596Z,0.20
2022-12-03T06:03:16.004Z,0.20
2022-12-03T06:05:44.032Z,0.22
2022-12-03T06:08:12.078Z,0.20
2022-12-03T06:10:40.096Z,0.15
2022-12-03T06:13:08.337Z,0.16
2022-12-03T06:15:43.291Z,0.20
2022-12-03T06:18:15.430Z,0.18
2022-12-03T06:24:28.135Z,0.11
2022-12-03T06:26:56.133Z,0.08
2022-12-03T06:29:24.337Z,0.06
2022-12-03T06:31:52.507Z,0.07
2022-12-03T06:34:20.625Z,0.05
2022-12-03T06:36:50.010Z,0.08
2022-12-03T06:39:22.736Z,0.08
2022-12-03T06:41:52.271Z,0.08
2022-12-03T06:44:22.597Z,0.04
2022-12-03T06:46:53.181Z,-0.01
2022-12-03T06:49:21.208Z,-0.03
2022-12-03T06:51:49.204Z,-0.08
2022-12-03T06:54:17.254Z,-0.11
2022-12-03T06:56:45.824Z,-0.17
2022-12-03T06:59:15.891Z,-0.20
2022-12-03T07:01:44.269Z,-0.24
2022-12-03T07:04:12.338Z,-0.27
2022-12-03T07:06:40.381Z,-0.29
2022-12-03T07:09:08.471Z,-0.29
2022-12-03T07:11:42.208Z,-0.30
2022-12-03T07:14:11.689Z,-0.28
2022-12-03T07:16:44.460Z,-0.28
2022-12-03T07:19:15.812Z,-0.26
2022-12-03T07:21:46.727Z,-0.27
2022-12-03T07:24:14.881Z,-0.22
2022-12-03T07:26:43.101Z,-0.20
2022-12-03T07:29:11.065Z,-0.18
2022-12-03T07:31:39.441Z,-0.13
2022-12-03T07:34:09.083Z,-0.10
2022-12-03T07:36:39.891Z,-0.07
2022-12-03T07:39:07.909Z,0.01
2022-12-03T07:41:38.386Z,0.03
2022-12-03T07:44:10.800Z,0.08
2022-12-03T07:46:45.067Z,0.13
2022-12-03T07:49:14.626Z,0.08
2022-12-03T07:51:42.903Z,0.17
2022-12-03T07:54:11.039Z,0.20
2022-12-03T07:56:42.488Z,0.34
2022-12-03T07:59:10.884Z,0.65
2022-12-03T08:01:39.221Z,0.63
2022-12-03T08:04:07.460Z,0.61
2022-12-03T08:06:36.789Z,0.56
2022-12-03T08:09:05.121Z,0.51
2022-12-03T08:11:34.110Z,0.46
2022-12-03T08:14:02.609Z,0.45
2022-12-03T08:16:31.790Z,0.42
2022-12-03T08:19:00.181Z,0.44
2022-12-03T08:21:36.168Z,0.53
2022-12-03T08:24:23.621Z,0.47
2022-12-03T08:26:51.802Z,0.49
2022-12-03T08:29:21.092Z,0.51
2022-12-03T08:31:52.033Z,0.58
2022-12-03T08:34:22.656Z,0.76
2022-12-03T08:36:57.124Z,0.98
2022-12-03T08:39:33.226Z,1.21
2022-12-03T08:42:30.712Z,1.28
2022-12-03T08:45:39.322Z,1.09
2022-12-03T08:48:32.490Z,1.23
2022-12-03T08:51:04.630Z,1.55
2022-12-03T08:53:36.527Z,1.63
2022-12-03T08:56:13.589Z,1.52
2022-12-03T08:58:43.376Z,1.42
2022-12-03T09:01:31.522Z,1.46
2022-12-03T09:04:15.362Z,1.39
2022-12-03T09:06:46.373Z,1.22
2022-12-03T09:09:16.087Z,1.34
2022-12-03T09:11:44.813Z,1.47
2022-12-03T09:14:18.952Z,1.61
2022-12-03T09:16:47.811Z,1.71
2022-12-03T09:19:16.354Z,1.71
2022-12-03T09:21:48.081Z,1.78
2022-12-03T09:24:17.579Z,1.76
2022-12-03T09:26:45.701Z,1.73
2022-12-03T09:29:13.700Z,1.37
2022-12-03T09:31:42.338Z,1.63
2022-12-03T09:34:12.262Z,1.68
2022-12-03T09:36:42.653Z,1.58
2022-12-03T09:39:10.976Z,1.67
2022-12-03T09:41:43.766Z,1.74
2022-12-03T09:44:17.807Z,1.89
2022-12-03T09:46:47.465Z,1.89
2022-12-03T09:49:20.815Z,1.94
2022-12-03T09:51:54.907Z,1.97
2022-12-03T09:54:25.202Z,2.02
2022-12-03T09:56:55.290Z,2.10
2022-12-03T09:59:24.772Z,2.07
2022-12-03T10:01:57.714Z,2.20
2022-12-03T10:04:25.825Z,2.15
2022-12-03T10:06:53.881Z,2.23
2022-12-03T10:09:26.235Z,2.15
2022-12-03T10:11:56.311Z,2.23
2022-12-03T10:14:27.261Z,2.32
2022-12-03T10:16:55.560Z,2.55
2022-12-03T10:19:26.745Z,2.79
2022-12-03T10:21:55.752Z,2.85
2022-12-03T10:24:26.785Z,2.78
2022-12-03T10:26:58.837Z,2.72
2022-12-03T10:29:33.689Z,2.57
2022-12-03T10:32:04.650Z,2.61
2022-12-03T10:34:39.960Z,2.82
2022-12-03T10:37:15.868Z,2.85
2022-12-03T10:40:00.454Z,3.27
2022-12-03T10:42:34.801Z,3.89
2022-12-03T10:45:20.035Z,3.86
2022-12-03T10:48:05.198Z,4.12
2022-12-03T10:50:34.652Z,3.84
2022-12-03T10:53:03.262Z,3.92
2022-12-03T10:55:38.804Z,4.15
2022-12-03T10:58:19.080Z,4.37
2022-12-03T11:00:50.201Z,4.60
2022-12-03T11:03:20.964Z,4.47
2022-12-03T11:05:50.086Z,4.19
2022-12-03T11:08:21.171Z,4.26
2022-12-03T11:10:57.998Z,4.41
2022-12-03T11:13:45.741Z,4.01
2022-12-03T11:16:15.121Z,4.12
2022-12-03T11:19:03.084Z,4.42
2022-12-03T11:21:32.014Z,5.18
2022-12-03T11:25:52.574Z,5.04
2022-12-03T11:28:36.012Z,4.57
2022-12-03T11:31:09.842Z,4.21
2022-12-03T11:33:41.616Z,3.84
2022-12-03T11:36:12.567Z,3.71
2022-12-03T11:38:55.251Z,3.47
2022-12-03T11:41:28.023Z,3.29
2022-12-03T11:44:29.293Z,2.99
2022-12-03T11:47:00.436Z,3.03
2022-12-03T11:49:48.132Z,2.88
2022-12-03T11:52:25.644Z,2.94
2022-12-03T11:54:57.623Z,3.11
2022-12-03T11:57:36.819Z,3.18
2022-12-03T12:00:21.907Z,3.18
2022-12-03T12:02:51.384Z,2.99
2022-12-03T12:05:23.904Z,3.00
2022-12-03T12:07:52.420Z,3.11
2022-12-03T12:10:41.314Z,3.16
2022-12-03T12:13:48.855Z,3.03
2022-12-03T12:16:55.988Z,3.11
2022-12-03T12:19:39.885Z,3.17
2022-12-03T12:22:21.319Z,3.14
2022-12-03T12:24:53.668Z,3.09
2022-12-03T12:27:23.570Z,3.23
2022-12-03T12:29:58.097Z,3.21
2022-12-03T12:32:28.556Z,3.19
2022-12-03T12:35:01.801Z,3.20
2022-12-03T12:37:36.257Z,3.11
2022-12-03T12:40:13.781Z,3.15
2022-12-03T12:42:50.970Z,3.31
2022-12-03T12:45:22.487Z,3.10
2022-12-03T12:48:03.157Z,3.27
2022-12-03T12:50:31.907Z,3.01
2022-12-03T12:53:09.646Z,3.04
2022-12-03T12:55:38.163Z,2.89
2022-12-03T12:58:14.775Z,2.95
2022-12-03T13:00:51.911Z,2.95
2022-12-03T13:03:25.452Z,3.04
2022-12-03T13:05:57.914Z,2.95
2022-12-03T13:08:28.850Z,2.82
2022-12-03T13:10:59.019Z,2.67
2022-12-03T13:13:31.844Z,2.60
2022-12-03T13:16:07.298Z,2.63
2022-12-03T13:18:45.090Z,2.65
2022-12-03T13:21:22.942Z,2.65
2022-12-03T13:23:53.780Z,2.60
2022-12-03T13:26:36.182Z,2.54
2022-12-03T13:29:14.625Z,2.49
2022-12-03T13:31:50.292Z,2.51
2022-12-03T13:34:21.884Z,2.49
2022-12-03T13:36:58.161Z,2.43
2022-12-03T13:39:32.673Z,2.45
2022-12-03T13:42:31.205Z,2.48
2022-12-03T13:44:59.290Z,2.51
2022-12-03T13:47:28.900Z,2.48
2022-12-03T13:49:59.083Z,2.52
2022-12-03T13:52:27.802Z,2.52
2022-12-03T13:54:58.137Z,2.57
2022-12-03T13:57:30.559Z,2.50
2022-12-03T13:59:58.674Z,2.42
2022-12-03T14:02:30.446Z,2.39
2022-12-03T14:05:00.396Z,2.43
2022-12-03T14:07:29.208Z,2.43
2022-12-03T14:09:57.698Z,2.39
2022-12-03T14:12:33.464Z,2.40
2022-12-03T14:15:02.292Z,2.44
2022-12-03T14:17:36.382Z,2.38
2022-12-03T14:20:05.517Z,2.27
2022-12-03T14:22:33.580Z,2.39
2022-12-03T14:25:01.546Z,2.34
2022-12-03T14:27:32.191Z,2.29
2022-12-03T14:30:00.400Z,2.24
2022-12-03T14:32:28.435Z,2.25
2022-12-03T14:34:58.062Z,2.24
2022-12-03T14:37:26.109Z,2.26
2022-12-03T14:39:54.377Z,2.24
2022-12-03T14:42:22.692Z,2.23
2022-12-03T14:44:52.074Z,2.22
2022-12-03T14:47:22.548Z,2.18
2022-12-03T14:49:51.732Z,2.19
2022-12-03T14:52:23.865Z,2.18
2022-12-03T14:54:51.911Z,2.14
2022-12-03T14:57:19.910Z,2.16
2022-12-03T14:59:48.081Z,2.15
2022-12-03T15:02:18.575Z,2.13
2022-12-03T15:04:46.642Z,2.00
2022-12-03T15:07:14.588Z,2.11
2022-12-03T15:09:43.976Z,2.02
2022-12-03T15:12:11.996Z,2.00
2022-12-03T15:14:40.076Z,2.00
2022-12-03T15:17:08.240Z,1.99
2022-12-03T15:19:36.183Z,1.96
2022-12-03T15:22:04.285Z,1.92
2022-12-03T15:24:32.491Z,1.95
2022-12-03T15:27:01.874Z,1.96
2022-12-03T15:29:30.350Z,1.93
2022-12-03T15:31:59.326Z,1.93
2022-12-03T15:34:27.512Z,1.85
2022-12-03T15:36:55.804Z,1.92
2022-12-03T15:39:23.791Z,1.96
2022-12-03T15:41:52.249Z,1.94
2022-12-03T15:44:24.019Z,1.92
2022-12-03T15:46:52.269Z,1.89
2022-12-03T15:49:20.211Z,1.91
2022-12-03T15:51:48.119Z,1.88
2022-12-03T15:54:16.295Z,1.84
2022-12-03T15:56:44.236Z,1.86
2022-12-03T15:59:21.600Z,1.87
2022-12-03T16:01:53.786Z,1.83
2022-12-03T16:04:21.896Z,1.85
2022-12-03T16:06:50.260Z,1.85
2022-12-03T16:09:22.292Z,1.83
2022-12-03T16:11:55.917Z,1.82
2022-12-03T16:14:24.008Z,1.82
2022-12-03T16:16:53.327Z,1.80
2022-12-03T16:19:21.347Z,1.79
2022-12-03T16:21:49.446Z,1.60
2022-12-03T16:26:30.586Z,1.70
2022-12-03T16:29:01.596Z,1.68
2022-12-03T16:31:33.345Z,1.67
2022-12-03T16:34:01.522Z,1.63
2022-12-03T16:36:31.580Z,1.64
2022-12-03T16:38:59.623Z,1.62
2022-12-03T16:41:27.980Z,1.65
2022-12-03T16:44:02.063Z,1.65
2022-12-03T16:46:30.207Z,1.65
2022-12-03T16:48:59.166Z,1.59
2022-12-03T16:51:30.366Z,1.66
2022-12-03T16:53:58.433Z,1.64
2022-12-03T16:56:26.392Z,1.63
2022-12-03T16:58:54.457Z,1.61
2022-12-03T17:01:26.860Z,1.63
2022-12-03T17:03:54.987Z,1.61
2022-12-03T17:06:23.083Z,1.62
2022-12-03T17:08:51.198Z,1.60
2022-12-03T17:11:21.621Z,1.62
2022-12-03T17:13:49.603Z,1.60
2022-12-03T17:16:19.783Z,1.60
2022-12-03T17:18:50.347Z,1.60
2022-12-03T17:21:22.783Z,1.57
2022-12-03T17:23:51.195Z,1.54
2022-12-03T17:26:19.796Z,1.54
2022-12-03T17:28:51.480Z,1.55
2022-12-03T17:31:19.576Z,1.56
2022-12-03T17:33:47.701Z,1.55
2022-12-03T17:36:20.125Z,1.55
2022-12-03T17:38:48.232Z,1.53
2022-12-03T17:41:16.417Z,1.54
2022-12-03T17:43:44.807Z,1.56
2022-12-03T17:46:12.872Z,1.55
2022-12-03T17:48:43.279Z,1.56
2022-12-03T17:51:11.300Z,1.57
2022-12-03T17:53:40.736Z,1.53
2022-12-03T17:56:11.748Z,1.47
2022-12-03T17:58:40.779Z,1.58
2022-12-03T18:01:11.014Z,1.57
2022-12-03T18:03:39.417Z,1.57
2022-12-03T18:06:08.062Z,1.57
2022-12-03T18:08:40.457Z,1.57
2022-12-03T18:11:08.605Z,1.58
2022-12-03T18:13:39.677Z,1.56
2022-12-03T18:16:08.219Z,1.55
2022-12-03T18:18:36.441Z,1.53
2022-12-03T18:21:04.634Z,1.56
2022-12-03T18:23:33.675Z,1.52
2022-12-03T18:26:03.378Z,1.53
2022-12-03T18:28:31.777Z,1.49
2022-12-03T18:31:02.295Z,1.52
2022-12-03T18:33:30.396Z,1.51
2022-12-03T18:35:59.237Z,1.54
2022-12-03T18:38:30.798Z,1.52
2022-12-03T18:40:58.882Z,1.55
2022-12-03T18:43:30.989Z,1.55
2022-12-03T18:46:01.123Z,1.54
2022-12-03T18:48:29.195Z,1.57
2022-12-03T18:50:57.596Z,1.50
2022-12-03T18:53:25.569Z,1.51
2022-12-03T18:55:53.857Z,1.52
2022-12-03T18:58:22.123Z,1.52
2022-12-03T19:00:51.501Z,1.49
2022-12-03T19:03:22.418Z,1.48
2022-12-03T19:05:50.590Z,1.49
2022-12-03T19:08:19.295Z,1.46
2022-12-03T19:10:57.357Z,1.51
2022-12-03T19:13:26.249Z,1.50
2022-12-03T19:15:55.906Z,1.50
2022-12-03T19:18:25.058Z,1.47
2022-12-03T19:20:55.729Z,1.46
2022-12-03T19:23:23.948Z,1.46
2022-12-03T19:25:58.283Z,1.46
2022-12-03T19:28:26.622Z,1.48
2022-12-03T19:31:00.369Z,1.45
2022-12-03T19:33:29.770Z,1.46
2022-12-03T19:36:01.194Z,1.46
2022-12-03T19:38:31.789Z,1.39
2022-12-03T19:41:01.300Z,1.45
2022-12-03T19:43:31.680Z,1.48
2022-12-03T19:46:05.033Z,1.48
2022-12-03T19:48:37.900Z,1.50
2022-12-03T19:51:32.847Z,1.50
2022-12-03T19:53:56.307Z,1.46
2022-12-03T19:56:24.333Z,1.50
2022-12-03T19:58:55.759Z,1.47
2022-12-03T20:01:27.109Z,1.48
2022-12-03T20:03:57.248Z,1.48
2022-12-03T20:06:27.728Z,1.30
2022-12-03T20:08:57.486Z,1.46
2022-12-03T20:11:27.923Z,1.41
2022-12-03T20:13:58.388Z,1.44
2022-12-03T20:16:28.303Z,1.43
2022-12-03T20:18:58.375Z,1.41
2022-12-03T20:21:31.567Z,1.44
2022-12-03T20:23:59.879Z,1.45
2022-12-03T20:26:28.907Z,1.45
2022-12-03T20:28:58.707Z,1.43
2022-12-03T20:31:30.541Z,1.44
2022-12-03T20:34:01.210Z,1.46
2022-12-03T20:36:32.947Z,1.40
2022-12-03T20:39:02.816Z,1.41
2022-12-03T20:41:31.328Z,1.44
2022-12-03T20:44:02.349Z,1.41
2022-12-03T20:46:32.906Z,1.42
2022-12-03T20:49:01.512Z,1.44
2022-12-03T20:51:31.523Z,1.45
2022-12-03T20:54:03.100Z,1.42
2022-12-03T20:56:35.642Z,1.46
2022-12-03T20:59:06.755Z,1.47
2022-12-03T21:01:38.306Z,1.46
2022-12-03T21:04:08.405Z,1.43
2022-12-03T21:06:37.761Z,1.42
2022-12-03T21:09:07.589Z,1.42
2022-12-03T21:11:39.156Z,1.44
2022-12-03T21:14:07.261Z,1.44
2022-12-03T21:17:07.107Z,1.47
2022-12-03T21:19:29.672Z,1.47
2022-12-03T21:21:58.046Z,1.49
2022-12-03T21:27:21.629Z,1.37
2022-12-03T21:29:52.961Z,1.40
2022-12-03T21:32:21.503Z,1.43
2022-12-03T21:34:51.748Z,1.42
2022-12-03T21:37:23.066Z,1.43
2022-12-03T21:39:51.096Z,1.46
2022-12-03T21:42:35.953Z,1.42
2022-12-03T21:45:06.453Z,1.46
2022-12-03T21:47:37.201Z,1.49
2022-12-03T21:50:07.313Z,1.49
2022-12-03T21:52:35.481Z,1.41
2022-12-03T21:55:03.467Z,1.44
2022-12-03T21:57:32.920Z,1.44
2022-12-03T22:00:00.911Z,1.45
2022-12-03T22:02:28.919Z,1.44
2022-12-03T22:04:59.392Z,1.42
2022-12-03T22:07:29.812Z,1.38
2022-12-03T22:09:57.858Z,1.38
2022-12-03T22:12:26.046Z,1.44
2022-12-03T22:14:57.126Z,1.42
2022-12-03T22:17:26.961Z,1.46
2022-12-03T22:19:55.702Z,1.31
2022-12-03T22:22:23.801Z,1.37
2022-12-03T22:24:51.951Z,1.37
2022-12-03T22:27:20.331Z,1.35
2022-12-03T22:29:48.204Z,1.38
2022-12-03T22:32:17.625Z,1.34
2022-12-03T22:34:45.619Z,1.35
2022-12-03T22:37:16.029Z,1.37
2022-12-03T22:39:47.081Z,1.37
2022-12-03T22:42:15.313Z,1.35
2022-12-03T22:44:45.416Z,1.34
2022-12-03T22:47:13.734Z,1.33
2022-12-03T22:49:43.117Z,1.33
2022-12-03T22:52:11.044Z,1.38
2022-12-03T22:54:39.432Z,1.36
2022-12-03T22:57:07.448Z,1.28
2022-12-03T22:59:35.372Z,1.24
2022-12-03T23:02:03.341Z,1.25
2022-12-03T23:04:31.377Z,1.26
2022-12-03T23:07:00.692Z,1.20
2022-12-03T23:09:29.120Z,1.21
2022-12-03T23:11:57.103Z,1.18
2022-12-03T23:14:25.098Z,1.16
2022-12-03T23:16:53.189Z,1.15
2022-12-03T23:19:21.681Z,1.18
2022-12-03T23:21:49.700Z,1.01
2022-12-03T23:24:19.164Z,1.15
2022-12-03T23:26:47.172Z,1.18
2022-12-03T23:29:15.290Z,1.14
2022-12-03T23:31:43.722Z,1.14
2022-12-03T23:34:14.345Z,1.10
2022-12-03T23:36:44.921Z,1.09
2022-12-03T23:39:13.242Z,1.14
2022-12-03T23:41:42.878Z,1.17
2022-12-03T23:44:11.030Z,1.15
2022-12-03T23:46:40.633Z,1.18
2022-12-03T23:49:08.852Z,1.16
2022-12-03T23:51:37.093Z,1.15
2022-12-03T23:54:05.548Z,1.17
2022-12-03T23:56:33.517Z,1.15
2022-12-03T23:59:02.947Z,1.15
